Taipei Songshan Airport
RCSS : now visible

Airfield :











YOU CAN JOIN US ON...

 
LOGIN :

Register | Disclaimer

   EN    FR    IT 

 









Legend :    VFR   Marginal VFR   IFR   Intensive IFR   Very Intensive IFR
Visi :
Ceiling :
>= 8 km
>= 3000ft
5 to 8 km
1000 to 3000 ft
1500m to 5 km
500 to 1000 ft
800 to 1500m
200 to 500 ft
< 800m
< 200 ft
Symbols :   Thunderstorms  Fog  Heavy snow  Heavy precipitations  Wind > 20 kt







- Airport Elevation : 18 ft
- IATA code : TSA


RCSS - Taipei Songshan

CURRENT METAR :
  • 161600Z 08012KT 9999 FEW025 29/25 Q1004 NOSIG RMK A2966

EXPIRED METARs :
  • 161530Z 08010KT 9999 FEW025 29/25 Q1004 NOSIG RMK A2967
  • 161500Z 08011KT 9999 FEW025 29/25 Q1005 NOSIG RMK A2968
  • 161430Z 08011KT 9999 FEW025 29/25 Q1005 NOSIG RMK A2968
  • 161400Z 08012KT 9999 FEW025 29/25 Q1005 NOSIG RMK A2968
  • 161330Z 08010KT 9999 FEW025 29/25 Q1005 NOSIG RMK A2968

TAF TAF RCSS
Valid from the 16 at 12:00 until the 17 at 12:00 UTC


161100Z 1612/1712 09015KT 9999 FEW020 SCT100
BECMG 1614/1616 FEW012 BKN022 BKN032
TEMPO 1622/1702 5000 SHRA FEW008 BKN016 BKN030
TEMPO 1702/1708 08016G28KT 4000 SHRA FEW010 BKN018 BKN030
RCAA FIR / Asia



MET'MAP, your aeronautical weather chart ! - Copyright ORBIFLY December 2007 - Disclaimer

ORBIFLY MET'MAP TEAM :

Programming & Development : Alexandra Zaïnal
Concept & Development : Baudouin d'Aumeries
Co-Development & Prog : Marc-Olivier Méhu
Technical & hardware support : Manuel Goepfert

Contact : metmap@orbifly.com




SOURCES & CREDITS :

   NOAA       Earth
Advisory